Freeman, Colorado
Current Conditions -  °F | °C
As of 3:50 AM on Friday 31 Oct 2014 (Local Time) from KRCV Reporting Station
Clear Clear  
Wind Chill: 22°   Ceiling: Unl
Heat Index: 31°   Visibility: 10mi
Dew Point: 18°   Wind: 10mph
Humidity: 58%   Direction: 270°W
Pressure: 30.41"   Gusts: NA
Location:  37.6359°N, 106.449°W
Report Text: KRCV 310950Z AUTO 27009KT 10SM CLR M01/M08 A3041 RMK AO2 T10061080
Loading
Personal Weather Stations






























Interactive Weather Map
Tropical Storm Tracking
New forecast layout! Learn more

10-Day Weather Forecast

Advertisements
Track Severe Weather on mobile